Time;durP1;ratioP1;P1;durP2;ratioP2;P2;SDS_P1;SDS_P2;PMS_P1;PMS_P2;Temp;Humidity;BMP_temperature;BMP_pressure;BME280_temperature;BME280_humidity;BME280_pressure;Samples;Min_cycle;Max_cycle;Signal;HPM_P1;HPM_P2
2022/12/05 00:02:20;;;;;;;60.88;29.50;;;;;;;;;;5015972;27;99710;-69
2022/12/05 00:04:46;;;;;;;54.92;29.55;;;;;;;;;;5013670;27;99200;-69
2022/12/05 00:07:13;;;;;;;51.80;27.65;;;;;;;;;;5008953;28;100062;-69
2022/12/05 00:09:39;;;;;;;58.80;28.08;;;;;;;;;;4998651;28;99584;-69
2022/12/05 00:12:05;;;;;;;52.30;26.95;;;;;;;;;;5008353;28;98564;-69
2022/12/05 00:14:31;;;;;;;60.30;28.75;;;;;;;;;;5008622;28;102183;-68
2022/12/05 00:16:58;;;;;;;54.13;27.08;;;;;;;;;;5010214;28;99587;-69
2022/12/05 00:19:24;;;;;;;54.80;26.00;;;;;;;;;;5007992;28;99197;-69
2022/12/05 00:21:50;;;;;;;55.47;27.33;;;;;;;;;;5006866;28;99100;-69
2022/12/05 00:24:18;;;;;;;55.55;28.02;;;;;;;;;;5007503;28;98547;-69
2022/12/05 00:26:44;;;;;;;56.25;27.30;;;;;;;;;;5008254;28;99319;-69
2022/12/05 00:29:11;;;;;;;54.80;27.40;;;;;;;;;;5008879;28;101403;-69
2022/12/05 00:31:37;;;;;;;52.10;25.45;;;;;;;;;;5002036;27;99379;-69
2022/12/05 00:34:04;;;;;;;54.78;27.17;;;;;;;;;;5013286;28;102552;-69
2022/12/05 00:36:31;;;;;;;53.50;27.10;;;;;;;;;;4994372;28;99893;-68
2022/12/05 00:38:59;;;;;;;58.60;28.92;;;;;;;;;;5013936;28;98683;-69
2022/12/05 00:41:26;;;;;;;55.58;28.05;;;;;;;;;;5007764;28;99737;-69
2022/12/05 00:43:52;;;;;;;51.40;27.33;;;;;;;;;;5011646;28;99400;-67
2022/12/05 00:46:20;;;;;;;55.00;28.13;;;;;;;;;;5011190;28;99262;-68
2022/12/05 00:48:47;;;;;;;54.35;27.80;;;;;;;;;;5011689;28;99742;-68
2022/12/05 00:51:14;;;;;;;55.65;27.83;;;;;;;;;;5011589;28;98587;-68
2022/12/05 00:53:41;;;;;;;57.63;27.75;;;;;;;;;;5011537;28;99233;-69
2022/12/05 00:56:12;;;;;;;57.35;28.38;;;;;;;;;;5010352;28;99425;-69
2022/12/05 00:58:38;;;;;;;;;;;;;;;;;;5015178;28;98553;-69
2022/12/05 01:01:05;;;;;;;58.00;27.33;;;;;;;;;;5011468;28;130224;-68
2022/12/05 01:03:32;;;;;;;53.28;27.52;;;;;;;;;;5003521;28;98942;-69
2022/12/05 01:05:58;;;;;;;52.35;27.83;;;;;;;;;;4996113;28;99339;-69
2022/12/05 01:08:24;;;;;;;54.70;26.42;;;;;;;;;;5010369;28;99482;-69
2022/12/05 01:10:51;;;;;;;61.35;28.45;;;;;;;;;;5011293;28;98028;-69
2022/12/05 01:13:18;;;;;;;45.78;26.17;;;;;;;;;;5010682;28;98983;-69
2022/12/05 01:15:44;;;;;;;54.65;26.75;;;;;;;;;;5010008;28;99804;-69
2022/12/05 01:18:10;;;;;;;51.92;25.40;;;;;;;;;;5009395;28;99376;-69
2022/12/05 01:20:40;;;;;;;51.70;27.15;;;;;;;;;;5013326;28;99927;-69
2022/12/05 01:23:06;;;;;;;59.03;27.30;;;;;;;;;;5011454;28;99743;-69
2022/12/05 01:25:33;;;;;;;52.38;26.95;;;;;;;;;;5010312;28;99156;-66
2022/12/05 01:27:59;;;;;;;53.25;27.20;;;;;;;;;;5010302;28;99973;-67
2022/12/05 01:30:26;;;;;;;58.90;27.98;;;;;;;;;;5009474;28;98545;-68
2022/12/05 01:32:52;;;;;;;55.45;26.73;;;;;;;;;;5008245;28;99326;-70
2022/12/05 01:35:18;;;;;;;58.67;26.83;;;;;;;;;;5009563;28;101857;-68
2022/12/05 01:37:44;;;;;;;54.92;27.10;;;;;;;;;;5010596;28;98530;-68
2022/12/05 01:40:11;;;;;;;57.15;28.88;;;;;;;;;;5016227;27;99129;-68
2022/12/05 01:42:38;;;;;;;59.30;28.85;;;;;;;;;;5027072;28;101232;-68
2022/12/05 01:45:06;;;;;;;67.45;28.58;;;;;;;;;;5021230;27;99994;-68
2022/12/05 01:47:34;;;;;;;57.33;27.63;;;;;;;;;;5009315;28;99421;-68
2022/12/05 01:50:01;;;;;;;56.75;26.83;;;;;;;;;;5012487;28;98982;-68
2022/12/05 01:52:28;;;;;;;56.42;27.60;;;;;;;;;;5011776;28;100068;-69
2022/12/05 01:54:56;;;;;;;60.47;27.98;;;;;;;;;;5019917;28;100627;-68
2022/12/05 01:57:23;;;;;;;56.35;27.25;;;;;;;;;;5012293;28;98625;-68
2022/12/05 01:59:54;;;;;;;59.22;28.13;;;;;;;;;;5011291;28;99263;-68
2022/12/05 02:02:21;;;;;;;61.13;28.80;;;;;;;;;;5015028;27;99812;-68
2022/12/05 02:04:57;;;;;;;56.72;28.08;;;;;;;;;;5010589;28;98521;-68
2022/12/05 02:07:24;;;;;;;55.70;28.88;;;;;;;;;;5009714;28;100548;-69
2022/12/05 02:09:50;;;;;;;55.05;28.38;;;;;;;;;;5008722;28;98777;-68
2022/12/05 02:12:17;;;;;;;52.33;27.00;;;;;;;;;;5011128;28;99306;-68
2022/12/05 02:14:50;;;;;;;59.60;26.33;;;;;;;;;;5010416;28;102476;-68
2022/12/05 02:17:19;;;;;;;55.88;26.40;;;;;;;;;;5009558;28;98642;-68
2022/12/05 02:19:51;;;;;;;57.83;26.63;;;;;;;;;;5008398;28;99778;-68
2022/12/05 02:22:27;;;;;;;58.88;28.50;;;;;;;;;;5004986;28;100978;-68
2022/12/05 02:25:11;;;;;;;58.47;27.80;;;;;;;;;;5010805;28;97807;-68
2022/12/05 02:27:44;;;;;;;60.47;26.58;;;;;;;;;;4998380;28;99672;-68
2022/12/05 02:30:18;;;;;;;59.42;26.45;;;;;;;;;;5009165;28;98576;-69
2022/12/05 02:33:07;;;;;;;57.63;27.08;;;;;;;;;;5007694;28;99580;-67
2022/12/05 02:35:45;;;;;;;48.58;25.80;;;;;;;;;;5007393;28;99939;-68
2022/12/05 02:38:16;;;;;;;56.60;27.17;;;;;;;;;;5004157;28;98582;-68
2022/12/05 02:40:49;;;;;;;53.58;26.15;;;;;;;;;;5018348;27;100792;-68
2022/12/05 02:43:17;;;;;;;55.97;26.83;;;;;;;;;;5010985;28;99777;-69
2022/12/05 02:45:46;;;;;;;56.50;27.67;;;;;;;;;;5015389;28;98646;-69
2022/12/05 02:48:14;;;;;;;51.22;25.95;;;;;;;;;;5022590;27;100423;-69
2022/12/05 02:50:41;;;;;;;51.28;25.73;;;;;;;;;;5012206;28;102115;-69
2022/12/05 02:53:10;;;;;;;53.35;25.25;;;;;;;;;;5009859;28;98908;-69
2022/12/05 02:55:37;;;;;;;52.90;26.23;;;;;;;;;;5016971;28;99574;-69
2022/12/05 02:58:06;;;;;;;61.10;27.50;;;;;;;;;;5011235;28;100795;-69
2022/12/05 03:00:34;;;;;;;54.25;26.48;;;;;;;;;;5010944;28;99917;-68
2022/12/05 03:03:01;;;;;;;51.78;24.33;;;;;;;;;;5008634;28;99530;-69
2022/12/05 03:05:37;;;;;;;55.75;25.38;;;;;;;;;;5003913;28;98800;-69
2022/12/05 03:08:05;;;;;;;51.50;26.23;;;;;;;;;;5009186;28;99269;-68
2022/12/05 03:10:33;;;;;;;57.88;25.73;;;;;;;;;;5009772;28;102195;-69
2022/12/05 03:13:02;;;;;;;50.97;24.92;;;;;;;;;;5009704;28;99557;-68
2022/12/05 03:15:35;;;;;;;56.85;25.92;;;;;;;;;;5008233;28;99346;-69
2022/12/05 03:18:09;;;;;;;49.85;25.63;;;;;;;;;;5008525;28;98456;-69
2022/12/05 03:20:38;;;;;;;50.15;25.77;;;;;;;;;;4994093;28;100376;-69
2022/12/05 03:23:04;;;;;;;49.97;24.30;;;;;;;;;;5007502;28;100373;-68
2022/12/05 03:25:34;;;;;;;46.33;24.63;;;;;;;;;;4999177;28;99021;-69
2022/12/05 03:28:04;;;;;;;48.95;25.17;;;;;;;;;;4989687;28;99506;-69
2022/12/05 03:30:33;;;;;;;49.35;23.15;;;;;;;;;;5006261;28;99995;-69
2022/12/05 03:33:18;;;;;;;43.67;23.65;;;;;;;;;;5010878;28;98627;-69
2022/12/05 03:36:17;;;;;;;50.85;24.63;;;;;;;;;;5007765;28;99789;-69
2022/12/05 03:38:46;;;;;;;50.85;23.77;;;;;;;;;;4989611;28;99970;-69
2022/12/05 03:41:12;;;;;;;51.85;24.92;;;;;;;;;;5020870;28;100297;-69
2022/12/05 03:43:46;;;;;;;44.83;23.83;;;;;;;;;;5009160;27;99498;-69
2022/12/05 03:46:20;;;;;;;45.17;22.95;;;;;;;;;;5012459;28;100700;-69
2022/12/05 03:48:53;;;;;;;48.85;23.58;;;;;;;;;;5016585;27;99719;-68
2022/12/05 03:51:22;;;;;;;41.75;22.20;;;;;;;;;;5009179;28;100361;-69
2022/12/05 03:53:52;;;;;;;42.63;22.40;;;;;;;;;;5015575;28;98621;-69
2022/12/05 03:56:20;;;;;;;44.40;23.20;;;;;;;;;;5020546;27;100030;-69
2022/12/05 03:59:01;;;;;;;45.47;23.05;;;;;;;;;;5025862;27;98881;-68
2022/12/05 04:01:29;;;;;;;48.22;23.63;;;;;;;;;;5008818;28;99281;-69
2022/12/05 04:03:57;;;;;;;44.25;22.77;;;;;;;;;;5014076;28;99520;-68
2022/12/05 04:06:27;;;;;;;44.72;23.45;;;;;;;;;;5012206;28;98315;-69
2022/12/05 04:08:59;;;;;;;37.47;20.77;;;;;;;;;;5005757;28;98832;-68
2022/12/05 04:11:27;;;;;;;40.03;21.35;;;;;;;;;;5018794;27;102604;-69
2022/12/05 04:13:54;;;;;;;45.30;23.38;;;;;;;;;;5021269;27;99779;-69
2022/12/05 04:19:17;;;;;;;40.10;21.63;;;;;;;;;;5030126;27;99491;-69
2022/12/05 04:21:45;;;;;;;44.50;22.88;;;;;;;;;;5023500;28;99222;-69
2022/12/05 04:27:07;;;;;;;44.50;21.27;;;;;;;;;;5027459;28;98910;-69
2022/12/05 04:29:36;;;;;;;48.97;23.52;;;;;;;;;;5024066;27;99442;-69
2022/12/05 04:32:05;;;;;;;46.28;23.30;;;;;;;;;;5014567;27;99355;-69
2022/12/05 04:34:32;;;;;;;42.80;22.00;;;;;;;;;;5015821;28;98579;-68
2022/12/05 04:37:01;;;;;;;42.85;21.52;;;;;;;;;;5025147;28;100306;-69
2022/12/05 04:39:40;;;;;;;45.20;22.83;;;;;;;;;;5019909;27;100388;-68
2022/12/05 04:42:08;;;;;;;45.00;23.48;;;;;;;;;;5019940;27;98624;-69
2022/12/05 04:44:47;;;;;;;41.45;21.20;;;;;;;;;;5009627;28;100531;-69
2022/12/05 04:47:15;;;;;;;50.90;22.83;;;;;;;;;;5022809;28;98503;-68
2022/12/05 04:49:43;;;;;;;47.88;23.00;;;;;;;;;;5023313;27;100317;-69
2022/12/05 04:52:14;;;;;;;49.20;22.48;;;;;;;;;;5029489;28;99517;-68
2022/12/05 04:55:10;;;;;;;39.67;21.42;;;;;;;;;;5021025;27;99697;-69
2022/12/05 04:57:40;;;;;;;42.78;20.75;;;;;;;;;;5004839;28;100304;-68
2022/12/05 05:00:07;;;;;;;;;;;;;;;;;;5009987;28;100494;-69
2022/12/05 05:02:45;;;;;;;43.30;22.15;;;;;;;;;;5012170;28;120442;-69
2022/12/05 05:05:12;;;;;;;42.67;21.52;;;;;;;;;;5008909;28;100758;-69
2022/12/05 05:07:46;;;;;;;42.55;21.55;;;;;;;;;;5011813;28;98514;-69
2022/12/05 05:10:15;;;;;;;41.30;21.42;;;;;;;;;;5021433;28;99738;-69
2022/12/05 05:12:41;;;;;;;48.03;22.95;;;;;;;;;;5013701;27;99837;-69
2022/12/05 05:15:07;;;;;;;47.92;22.27;;;;;;;;;;5027402;27;98541;-69
2022/12/05 05:17:34;;;;;;;48.08;23.65;;;;;;;;;;5014010;28;99259;-69
2022/12/05 05:22:49;;;;;;;44.35;22.20;;;;;;;;;;5009269;28;97838;-69
2022/12/05 05:25:15;;;;;;;49.37;23.83;;;;;;;;;;5012556;28;98693;-68
2022/12/05 05:27:41;;;;;;;43.63;22.25;;;;;;;;;;5007171;28;99016;-69
2022/12/05 05:30:08;;;;;;;45.83;23.02;;;;;;;;;;5007026;28;99693;-69
2022/12/05 05:32:34;;;;;;;41.75;23.27;;;;;;;;;;5007132;28;100498;-69
2022/12/05 05:35:00;;;;;;;44.00;22.85;;;;;;;;;;5015726;28;99532;-69
2022/12/05 05:37:27;;;;;;;52.20;24.70;;;;;;;;;;5023302;28;99463;-69
2022/12/05 05:39:53;;;;;;;46.97;23.88;;;;;;;;;;5021886;27;102474;-68
2022/12/05 05:42:19;;;;;;;45.65;23.58;;;;;;;;;;5015291;28;98647;-69
2022/12/05 05:44:46;;;;;;;41.40;22.45;;;;;;;;;;5016417;28;99208;-69
2022/12/05 05:47:12;;;;;;;50.15;23.98;;;;;;;;;;5027476;27;99186;-69
2022/12/05 05:49:38;;;;;;;47.22;23.23;;;;;;;;;;5019563;27;99951;-69
2022/12/05 05:52:04;;;;;;;42.38;22.80;;;;;;;;;;5013858;28;100090;-69
2022/12/05 05:54:31;;;;;;;40.92;22.92;;;;;;;;;;5016091;28;99853;-69
2022/12/05 05:56:57;;;;;;;47.63;22.73;;;;;;;;;;5028300;28;100086;-69
2022/12/05 05:59:23;;;;;;;44.70;24.08;;;;;;;;;;5010088;27;100402;-69
2022/12/05 06:01:49;;;;;;;45.75;22.27;;;;;;;;;;5012766;27;99352;-69
2022/12/05 06:04:16;;;;;;;52.88;24.85;;;;;;;;;;5015395;27;100456;-69
2022/12/05 06:06:42;;;;;;;45.35;23.50;;;;;;;;;;5011935;28;99568;-69
2022/12/05 06:09:08;;;;;;;48.83;23.77;;;;;;;;;;5013014;28;98911;-69
2022/12/05 06:11:35;;;;;;;45.63;22.85;;;;;;;;;;5004929;27;98821;-69
2022/12/05 06:14:01;;;;;;;44.05;22.13;;;;;;;;;;5010984;28;98545;-69
2022/12/05 06:16:29;;;;;;;48.40;23.25;;;;;;;;;;5015536;28;100453;-69
2022/12/05 06:18:55;;;;;;;48.10;22.90;;;;;;;;;;5024127;27;100568;-69
2022/12/05 06:21:22;;;;;;;48.15;22.95;;;;;;;;;;5012734;28;98517;-69
2022/12/05 06:23:48;;;;;;;47.35;24.27;;;;;;;;;;5009078;28;99386;-68
2022/12/05 06:26:16;;;;;;;44.30;23.13;;;;;;;;;;5011014;28;99665;-68
2022/12/05 06:28:43;;;;;;;44.38;22.13;;;;;;;;;;5026887;27;98913;-69
2022/12/05 06:31:10;;;;;;;43.83;23.25;;;;;;;;;;5016421;28;99851;-68
2022/12/05 06:33:37;;;;;;;44.47;22.50;;;;;;;;;;5009220;28;99614;-69
2022/12/05 06:36:07;;;;;;;50.20;23.17;;;;;;;;;;5016913;27;99396;-68
2022/12/05 06:38:34;;;;;;;47.92;22.20;;;;;;;;;;5009768;28;99700;-69
2022/12/05 06:41:08;;;;;;;44.38;21.83;;;;;;;;;;5004490;28;98540;-68
2022/12/05 06:43:34;;;;;;;51.40;23.02;;;;;;;;;;5009394;28;99248;-69
2022/12/05 06:46:04;;;;;;;47.75;21.83;;;;;;;;;;5008691;28;99952;-69
2022/12/05 06:48:31;;;;;;;51.47;22.90;;;;;;;;;;5012536;28;98680;-69
2022/12/05 06:50:57;;;;;;;43.88;21.70;;;;;;;;;;5013477;28;100228;-67
2022/12/05 06:53:23;;;;;;;44.83;23.27;;;;;;;;;;5012409;28;99497;-69
2022/12/05 06:55:57;;;;;;;49.15;23.05;;;;;;;;;;5006412;28;100189;-68
2022/12/05 06:58:23;;;;;;;45.50;21.48;;;;;;;;;;5025489;28;99843;-69
2022/12/05 07:03:35;;;;;;;40.85;21.83;;;;;;;;;;5007547;28;101241;-68
2022/12/05 07:06:02;;;;;;;45.92;22.58;;;;;;;;;;5003365;28;100007;-68
2022/12/05 07:08:28;;;;;;;53.08;21.65;;;;;;;;;;5006555;28;99327;-68
2022/12/05 07:10:55;;;;;;;50.58;22.30;;;;;;;;;;5009043;27;99940;-68
2022/12/05 07:13:21;;;;;;;40.00;20.27;;;;;;;;;;5018194;28;99687;-69
2022/12/05 07:15:48;;;;;;;47.65;21.50;;;;;;;;;;5011537;27;98945;-69
2022/12/05 07:18:15;;;;;;;40.00;20.25;;;;;;;;;;5006679;28;99504;-69
2022/12/05 07:20:42;;;;;;;46.58;21.80;;;;;;;;;;5009650;28;98490;-68
2022/12/05 07:23:28;;;;;;;46.47;21.15;;;;;;;;;;5013744;28;101221;-68
2022/12/05 07:25:56;;;;;;;46.15;22.45;;;;;;;;;;5003153;27;98755;-66
2022/12/05 07:28:23;;;;;;;46.20;21.92;;;;;;;;;;4998503;28;98692;-68
2022/12/05 07:31:02;;;;;;;48.50;21.58;;;;;;;;;;5012774;28;99829;-68
2022/12/05 07:33:28;;;;;;;50.45;21.85;;;;;;;;;;5005446;28;101419;-68
2022/12/05 07:35:58;;;;;;;37.70;20.00;;;;;;;;;;5006364;28;98775;-69
2022/12/05 07:38:24;;;;;;;49.97;21.87;;;;;;;;;;5009092;28;99516;-70
2022/12/05 07:40:51;;;;;;;46.88;22.38;;;;;;;;;;5006413;28;98536;-69
2022/12/05 07:43:17;;;;;;;55.70;22.52;;;;;;;;;;5008973;28;99354;-69
2022/12/05 07:45:43;;;;;;;45.17;21.05;;;;;;;;;;5015362;28;99838;-69
2022/12/05 07:48:10;;;;;;;51.40;22.98;;;;;;;;;;5009007;28;98502;-68
2022/12/05 07:50:43;;;;;;;51.53;22.40;;;;;;;;;;5008989;28;99429;-69
2022/12/05 07:53:09;;;;;;;54.28;23.02;;;;;;;;;;5009158;27;99448;-69
2022/12/05 07:55:36;;;;;;;51.35;23.08;;;;;;;;;;5029286;27;98859;-69
2022/12/05 07:58:02;;;;;;;45.83;21.83;;;;;;;;;;5023148;28;100280;-69
2022/12/05 08:00:28;;;;;;;46.97;21.48;;;;;;;;;;5005998;28;98639;-69
2022/12/05 08:02:55;;;;;;;47.75;21.88;;;;;;;;;;4994099;28;100008;-70
2022/12/05 08:05:21;;;;;;;44.00;21.65;;;;;;;;;;5008940;28;99635;-70
2022/12/05 08:07:47;;;;;;;47.50;21.38;;;;;;;;;;4993023;28;100024;-69
2022/12/05 08:10:14;;;;;;;44.60;20.13;;;;;;;;;;4990130;28;98818;-69
2022/12/05 08:12:40;;;;;;;45.78;21.55;;;;;;;;;;5003217;27;101407;-69
2022/12/05 08:15:07;;;;;;;42.90;20.77;;;;;;;;;;5005609;28;98134;-69
2022/12/05 08:17:33;;;;;;;48.05;22.05;;;;;;;;;;5023241;27;98811;-69
2022/12/05 08:20:00;;;;;;;42.30;21.02;;;;;;;;;;5022619;28;99160;-70
2022/12/05 08:22:26;;;;;;;43.78;20.55;;;;;;;;;;5007643;28;99236;-70
2022/12/05 08:24:52;;;;;;;44.03;19.92;;;;;;;;;;5014555;27;99779;-70
2022/12/05 08:27:21;;;;;;;41.85;20.38;;;;;;;;;;5001543;27;100096;-69
2022/12/05 08:29:48;;;;;;;44.00;20.77;;;;;;;;;;4997771;28;99301;-69
2022/12/05 08:32:14;;;;;;;40.47;20.92;;;;;;;;;;5009676;28;103870;-69
2022/12/05 08:34:41;;;;;;;44.80;20.95;;;;;;;;;;5008721;28;98553;-69
2022/12/05 08:37:07;;;;;;;40.28;20.10;;;;;;;;;;4993430;28;99200;-70
2022/12/05 08:39:35;;;;;;;40.67;20.25;;;;;;;;;;5022802;28;98619;-70
2022/12/05 08:42:04;;;;;;;42.45;19.77;;;;;;;;;;4996747;27;99125;-70
2022/12/05 08:44:30;;;;;;;36.08;19.20;;;;;;;;;;5002043;28;99868;-69
2022/12/05 08:46:56;;;;;;;41.25;20.92;;;;;;;;;;5003534;28;99338;-68
2022/12/05 08:49:23;;;;;;;35.20;19.05;;;;;;;;;;5003620;28;101392;-69
2022/12/05 08:51:49;;;;;;;41.63;20.00;;;;;;;;;;4999670;28;99642;-70
2022/12/05 08:54:15;;;;;;;36.35;20.10;;;;;;;;;;5005318;28;98511;-69
2022/12/05 08:56:41;;;;;;;42.38;19.92;;;;;;;;;;5013094;28;99567;-69
2022/12/05 08:59:08;;;;;;;37.03;19.35;;;;;;;;;;5013186;27;99517;-69
2022/12/05 09:01:37;;;;;;;46.03;20.48;;;;;;;;;;5014832;28;98786;-69
2022/12/05 09:04:04;;;;;;;42.95;20.80;;;;;;;;;;5009024;28;100641;-69
2022/12/05 09:06:31;;;;;;;34.85;18.70;;;;;;;;;;5026519;28;99324;-70
2022/12/05 09:08:58;;;;;;;37.40;19.98;;;;;;;;;;5028181;27;102560;-69
2022/12/05 09:11:26;;;;;;;39.10;19.77;;;;;;;;;;5010180;28;101352;-67
2022/12/05 09:13:53;;;;;;;40.28;20.17;;;;;;;;;;5005597;28;98932;-69
2022/12/05 09:16:21;;;;;;;42.35;20.80;;;;;;;;;;5003876;28;99219;-69
2022/12/05 09:18:49;;;;;;;38.20;19.90;;;;;;;;;;5013711;27;100456;-69
2022/12/05 09:21:16;;;;;;;37.20;19.65;;;;;;;;;;5031645;27;98524;-69
2022/12/05 09:23:43;;;;;;;36.35;19.20;;;;;;;;;;5027942;27;98776;-69
2022/12/05 09:26:11;;;;;;;36.15;19.42;;;;;;;;;;5031822;27;98546;-68
2022/12/05 09:28:37;;;;;;;37.72;19.40;;;;;;;;;;5032040;27;99251;-70
2022/12/05 09:31:05;;;;;;;37.22;18.98;;;;;;;;;;5025519;28;100819;-68
2022/12/05 09:33:33;;;;;;;34.22;19.42;;;;;;;;;;5028442;28;98495;-69
2022/12/05 09:36:06;;;;;;;34.63;18.77;;;;;;;;;;5030132;27;99300;-69
2022/12/05 09:38:32;;;;;;;33.35;18.05;;;;;;;;;;5030994;27;99691;-69
2022/12/05 09:41:15;;;;;;;36.38;19.40;;;;;;;;;;5031033;27;98784;-68
2022/12/05 09:43:53;;;;;;;31.60;18.20;;;;;;;;;;5026935;27;101251;-69
2022/12/05 09:46:27;;;;;;;35.88;17.90;;;;;;;;;;5017408;27;99469;-68
2022/12/05 09:49:01;;;;;;;32.42;18.08;;;;;;;;;;5031309;27;99433;-69
2022/12/05 09:51:27;;;;;;;28.73;16.75;;;;;;;;;;5011946;28;99854;-68
2022/12/05 09:53:54;;;;;;;32.03;17.58;;;;;;;;;;5026223;28;97991;-69
2022/12/05 09:56:25;;;;;;;29.23;17.15;;;;;;;;;;5006475;28;98607;-70
2022/12/05 09:58:53;;;;;;;26.60;15.18;;;;;;;;;;5014137;28;99518;-69
2022/12/05 10:01:19;;;;;;;31.40;16.85;;;;;;;;;;5010469;28;99360;-69
2022/12/05 10:04:16;;;;;;;32.83;16.55;;;;;;;;;;5010672;28;100344;-69
2022/12/05 10:06:54;;;;;;;27.55;15.15;;;;;;;;;;5022419;27;99432;-69
2022/12/05 10:09:46;;;;;;;32.75;16.92;;;;;;;;;;5003984;28;100233;-69
2022/12/05 10:12:31;;;;;;;23.48;14.60;;;;;;;;;;5010578;28;99479;-69
2022/12/05 10:15:16;;;;;;;27.40;16.00;;;;;;;;;;5010628;28;98521;-69
2022/12/05 10:17:46;;;;;;;27.92;15.05;;;;;;;;;;5001876;28;100013;-69
2022/12/05 10:20:15;;;;;;;22.40;14.63;;;;;;;;;;5007918;28;98918;-69
2022/12/05 10:23:10;;;;;;;25.88;15.32;;;;;;;;;;4999841;28;98505;-69
2022/12/05 10:25:58;;;;;;;22.77;14.02;;;;;;;;;;5000131;28;99270;-70
2022/12/05 10:28:36;;;;;;;25.90;14.55;;;;;;;;;;5009637;28;100728;-70
2022/12/05 10:31:04;;;;;;;27.33;15.05;;;;;;;;;;5006424;28;98570;-70
2022/12/05 10:33:34;;;;;;;24.65;14.27;;;;;;;;;;5011077;28;99748;-70
2022/12/05 10:36:01;;;;;;;24.50;14.15;;;;;;;;;;5003589;28;98765;-69
2022/12/05 10:38:30;;;;;;;28.45;15.60;;;;;;;;;;5008836;28;99224;-69
2022/12/05 10:41:02;;;;;;;29.98;15.35;;;;;;;;;;5008718;28;99859;-69
2022/12/05 10:43:29;;;;;;;24.05;14.85;;;;;;;;;;5010205;28;98920;-68
2022/12/05 10:45:56;;;;;;;30.45;15.55;;;;;;;;;;5007607;28;99374;-69
2022/12/05 10:48:22;;;;;;;29.05;15.30;;;;;;;;;;5008744;28;99452;-68
2022/12/05 10:50:53;;;;;;;24.02;14.50;;;;;;;;;;5009976;28;98913;-70
2022/12/05 10:53:23;;;;;;;24.13;14.85;;;;;;;;;;4992010;28;100296;-71
2022/12/05 10:55:50;;;;;;;22.88;14.55;;;;;;;;;;4991786;28;99889;-69
2022/12/05 10:58:36;;;;;;;26.42;15.32;;;;;;;;;;4997641;28;99367;-68
2022/12/05 11:01:07;;;;;;;28.55;15.05;;;;;;;;;;5009860;28;100759;-70
2022/12/05 11:03:35;;;;;;;25.42;14.18;;;;;;;;;;5006797;28;98670;-70
2022/12/05 11:06:13;;;;;;;26.15;14.85;;;;;;;;;;5008416;28;100723;-70
2022/12/05 11:08:39;;;;;;;20.77;13.30;;;;;;;;;;5004765;28;99645;-70
2022/12/05 11:11:27;;;;;;;21.88;14.57;;;;;;;;;;5008535;28;98682;-70
2022/12/05 11:13:55;;;;;;;22.23;13.68;;;;;;;;;;5001420;28;99004;-69
2022/12/05 11:16:27;;;;;;;26.52;14.25;;;;;;;;;;5004701;28;100886;-68
2022/12/05 11:18:54;;;;;;;18.02;11.82;;;;;;;;;;5010569;28;99310;-68
2022/12/05 11:21:20;;;;;;;17.90;10.40;;;;;;;;;;5010884;27;100414;-69
2022/12/05 11:23:47;;;;;;;15.68;9.60;;;;;;;;;;5019305;27;100318;-68
2022/12/05 11:26:16;;;;;;;12.52;8.65;;;;;;;;;;5016153;28;99634;-69
2022/12/05 11:28:42;;;;;;;17.10;8.45;;;;;;;;;;5016960;28;100614;-66
2022/12/05 11:31:11;;;;;;;11.88;6.85;;;;;;;;;;5006522;28;98721;-69
2022/12/05 11:33:38;;;;;;;12.00;6.70;;;;;;;;;;5008570;27;99372;-67
2022/12/05 11:36:04;;;;;;;8.90;5.82;;;;;;;;;;5021105;28;99757;-68
2022/12/05 11:38:31;;;;;;;8.20;5.90;;;;;;;;;;5032831;27;98523;-68
2022/12/05 11:41:07;;;;;;;8.00;5.93;;;;;;;;;;5025771;27;100879;-70
2022/12/05 11:43:42;;;;;;;6.65;5.15;;;;;;;;;;5002745;28;99672;-67
2022/12/05 11:46:26;;;;;;;7.68;5.25;;;;;;;;;;5004943;28;99849;-69
2022/12/05 11:48:53;;;;;;;7.82;5.75;;;;;;;;;;5009192;28;103553;-70
2022/12/05 11:51:38;;;;;;;6.70;5.28;;;;;;;;;;5007270;28;98563;-70
2022/12/05 11:54:23;;;;;;;7.18;5.28;;;;;;;;;;5002243;28;99934;-68
2022/12/05 11:57:09;;;;;;;7.10;5.18;;;;;;;;;;5007345;28;99537;-69
2022/12/05 11:59:57;;;;;;;9.32;5.43;;;;;;;;;;5007079;28;100108;-67
2022/12/05 12:02:31;;;;;;;8.30;5.78;;;;;;;;;;5011704;28;102559;-68
2022/12/05 12:05:13;;;;;;;8.05;6.05;;;;;;;;;;5009185;28;99808;-68
2022/12/05 12:07:55;;;;;;;8.02;5.30;;;;;;;;;;5011520;28;98987;-69
2022/12/05 12:10:24;;;;;;;9.10;5.20;;;;;;;;;;4999853;28;100398;-68
2022/12/05 12:13:09;;;;;;;8.45;5.15;;;;;;;;;;5005511;28;99119;-68
2022/12/05 12:15:52;;;;;;;9.70;4.93;;;;;;;;;;5023077;28;99367;-68
2022/12/05 12:18:37;;;;;;;7.07;4.88;;;;;;;;;;5005531;28;99418;-69
2022/12/05 12:21:12;;;;;;;8.18;4.25;;;;;;;;;;5007454;28;98622;-68
2022/12/05 12:23:55;;;;;;;9.38;4.95;;;;;;;;;;5008463;28;99639;-69
2022/12/05 12:26:37;;;;;;;9.38;5.20;;;;;;;;;;5012458;28;99579;-69
2022/12/05 12:29:06;;;;;;;7.07;4.82;;;;;;;;;;5010511;28;99604;-69
2022/12/05 12:31:50;;;;;;;9.02;5.07;;;;;;;;;;5013900;28;99971;-68
2022/12/05 12:34:28;;;;;;;8.93;5.00;;;;;;;;;;5029107;27;99883;-69
2022/12/05 12:36:58;;;;;;;7.35;4.90;;;;;;;;;;5032946;27;99398;-69
2022/12/05 12:39:33;;;;;;;5.97;4.93;;;;;;;;;;5016150;27;100184;-69
2022/12/05 12:42:12;;;;;;;9.05;4.63;;;;;;;;;;5024887;28;98500;-69
2022/12/05 12:45:02;;;;;;;7.88;5.03;;;;;;;;;;5031954;27;99120;-69
2022/12/05 12:47:28;;;;;;;7.75;4.85;;;;;;;;;;4992506;28;99566;-69
2022/12/05 12:50:02;;;;;;;6.18;4.50;;;;;;;;;;5012739;28;98585;-68
2022/12/05 12:52:34;;;;;;;6.22;4.18;;;;;;;;;;5010534;27;98602;-69
2022/12/05 12:55:20;;;;;;;9.43;4.70;;;;;;;;;;5021124;28;97870;-68
2022/12/05 12:57:46;;;;;;;8.23;4.40;;;;;;;;;;5032786;27;99017;-68
2022/12/05 13:00:20;;;;;;;5.68;4.20;;;;;;;;;;5029309;27;99492;-68
2022/12/05 13:02:52;;;;;;;4.88;3.55;;;;;;;;;;5030841;27;99226;-69
2022/12/05 13:05:19;;;;;;;4.40;2.92;;;;;;;;;;5027293;27;100010;-68
2022/12/05 13:07:54;;;;;;;10.23;3.80;;;;;;;;;;5030562;27;99781;-68
2022/12/05 13:10:28;;;;;;;5.95;3.50;;;;;;;;;;5029730;27;98638;-69
2022/12/05 13:12:56;;;;;;;4.00;3.22;;;;;;;;;;5030202;27;99773;-69
2022/12/05 13:15:26;;;;;;;4.03;3.20;;;;;;;;;;5023254;27;98576;-69
2022/12/05 13:17:53;;;;;;;4.07;3.40;;;;;;;;;;5012659;28;99179;-69
2022/12/05 13:20:21;;;;;;;3.53;2.90;;;;;;;;;;5016468;28;100075;-69
2022/12/05 13:22:49;;;;;;;4.63;3.30;;;;;;;;;;5025988;28;98799;-68
2022/12/05 13:25:16;;;;;;;6.93;3.80;;;;;;;;;;5027711;27;99502;-69
2022/12/05 13:28:02;;;;;;;6.50;3.20;;;;;;;;;;5026313;27;104025;-69
2022/12/05 13:30:30;;;;;;;6.05;3.03;;;;;;;;;;5009825;28;99542;-69
2022/12/05 13:32:57;;;;;;;4.57;3.13;;;;;;;;;;5006910;28;99794;-69
2022/12/05 13:43:56;;;;;;;6.03;3.53;;;;;;;;;;5018993;27;98585;-69
2022/12/05 13:46:33;;;;;;;7.38;3.83;;;;;;;;;;5016645;27;99137;-69
2022/12/05 13:49:05;;;;;;;7.45;4.03;;;;;;;;;;5012081;28;99540;-69
2022/12/05 13:51:35;;;;;;;6.32;4.10;;;;;;;;;;5024154;28;98903;-69
2022/12/05 13:54:23;;;;;;;6.00;4.03;;;;;;;;;;5031546;27;99509;-68
2022/12/05 13:56:49;;;;;;;5.15;4.20;;;;;;;;;;5017607;27;99927;-69
2022/12/05 13:59:34;;;;;;;8.02;4.75;;;;;;;;;;5008482;28;100120;-69
2022/12/05 14:02:00;;;;;;;6.57;4.97;;;;;;;;;;4991157;28;99667;-68
2022/12/05 14:04:49;;;;;;;9.30;4.78;;;;;;;;;;4995526;28;98634;-68
2022/12/05 14:07:37;;;;;;;9.63;4.95;;;;;;;;;;5013688;28;99735;-68
2022/12/05 14:10:05;;;;;;;8.15;4.93;;;;;;;;;;5023000;28;100486;-68
2022/12/05 14:12:51;;;;;;;6.97;4.90;;;;;;;;;;5024952;27;97793;-67
2022/12/05 14:15:26;;;;;;;7.90;5.07;;;;;;;;;;5023530;28;98766;-69
2022/12/05 14:17:58;;;;;;;7.25;4.95;;;;;;;;;;5003158;28;100274;-68
2022/12/05 14:20:25;;;;;;;5.50;4.35;;;;;;;;;;5034408;27;99168;-68
2022/12/05 14:22:57;;;;;;;7.32;4.30;;;;;;;;;;5025502;27;99723;-68
2022/12/05 14:25:35;;;;;;;9.80;4.82;;;;;;;;;;5018971;27;98902;-68
2022/12/05 14:28:12;;;;;;;10.70;4.95;;;;;;;;;;5011498;28;99311;-68
2022/12/05 14:31:07;;;;;;;6.40;4.13;;;;;;;;;;5012103;28;99561;-68
2022/12/05 14:33:33;;;;;;;6.35;4.25;;;;;;;;;;5023647;27;99104;-68
2022/12/05 14:36:07;;;;;;;6.55;4.20;;;;;;;;;;5012561;27;99192;-68
2022/12/05 14:38:36;;;;;;;6.47;4.25;;;;;;;;;;5011311;28;98801;-68
2022/12/05 14:41:15;;;;;;;5.95;4.40;;;;;;;;;;5011811;28;98519;-68
2022/12/05 14:43:41;;;;;;;5.65;4.10;;;;;;;;;;5014980;27;99285;-68
2022/12/05 14:46:15;;;;;;;4.63;3.80;;;;;;;;;;5009490;28;99276;-67
2022/12/05 14:48:45;;;;;;;11.45;4.07;;;;;;;;;;5010885;28;99916;-68
2022/12/05 14:51:31;;;;;;;8.13;4.25;;;;;;;;;;5014790;28;100614;-69
2022/12/05 14:54:09;;;;;;;6.95;4.63;;;;;;;;;;4990604;28;98807;-68
2022/12/05 14:56:39;;;;;;;4.20;3.65;;;;;;;;;;4990186;28;99336;-68
2022/12/05 14:59:21;;;;;;;8.27;4.72;;;;;;;;;;5010444;27;100805;-68
2022/12/05 15:01:52;;;;;;;9.05;4.30;;;;;;;;;;5014111;27;98910;-68